sensor_id;sensor_type;location;lat;lon;timestamp;P1;durP1;ratioP1;P2;durP2;ratioP2
2538;SDS011;1280;49.760;9.664;2023-09-07T00:02:12;9.27;;;4.57;;
2538;SDS011;1280;49.760;9.664;2023-09-07T00:04:40;7.43;;;4.67;;
2538;SDS011;1280;49.760;9.664;2023-09-07T00:07:09;8.93;;;4.80;;
2538;SDS011;1280;49.760;9.664;2023-09-07T00:09:37;7.57;;;4.17;;
2538;SDS011;1280;49.760;9.664;2023-09-07T00:12:07;9.77;;;5.17;;
2538;SDS011;1280;49.760;9.664;2023-09-07T00:14:35;8.07;;;5.23;;
2538;SDS011;1280;49.760;9.664;2023-09-07T00:17:03;7.60;;;4.80;;
2538;SDS011;1280;49.760;9.664;2023-09-07T00:19:33;7.70;;;4.90;;
2538;SDS011;1280;49.760;9.664;2023-09-07T00:22:03;10.70;;;4.63;;
2538;SDS011;1280;49.760;9.664;2023-09-07T00:24:31;9.67;;;5.07;;
2538;SDS011;1280;49.760;9.664;2023-09-07T00:26:59;11.57;;;4.30;;
2538;SDS011;1280;49.760;9.664;2023-09-07T00:29:28;8.20;;;5.40;;
2538;SDS011;1280;49.760;9.664;2023-09-07T00:31:56;9.90;;;5.10;;
2538;SDS011;1280;49.760;9.664;2023-09-07T00:34:24;7.77;;;4.97;;
2538;SDS011;1280;49.760;9.664;2023-09-07T00:36:52;8.57;;;4.67;;
2538;SDS011;1280;49.760;9.664;2023-09-07T00:39:20;8.70;;;5.03;;
2538;SDS011;1280;49.760;9.664;2023-09-07T00:41:48;9.93;;;4.73;;
2538;SDS011;1280;49.760;9.664;2023-09-07T00:44:17;7.37;;;4.13;;
2538;SDS011;1280;49.760;9.664;2023-09-07T00:46:46;11.83;;;5.40;;
2538;SDS011;1280;49.760;9.664;2023-09-07T00:49:16;10.20;;;4.93;;
2538;SDS011;1280;49.760;9.664;2023-09-07T00:51:44;8.50;;;4.60;;
2538;SDS011;1280;49.760;9.664;2023-09-07T00:54:12;7.27;;;4.50;;
2538;SDS011;1280;49.760;9.664;2023-09-07T00:56:41;8.93;;;4.67;;
2538;SDS011;1280;49.760;9.664;2023-09-07T00:59:09;8.83;;;4.77;;
2538;SDS011;1280;49.760;9.664;2023-09-07T01:01:40;9.87;;;4.40;;
2538;SDS011;1280;49.760;9.664;2023-09-07T01:04:11;6.70;;;4.10;;
2538;SDS011;1280;49.760;9.664;2023-09-07T01:06:39;10.17;;;4.27;;
2538;SDS011;1280;49.760;9.664;2023-09-07T01:09:17;9.07;;;4.50;;
2538;SDS011;1280;49.760;9.664;2023-09-07T01:11:48;9.17;;;4.93;;
2538;SDS011;1280;49.760;9.664;2023-09-07T01:14:17;14.50;;;5.40;;
2538;SDS011;1280;49.760;9.664;2023-09-07T01:16:46;8.23;;;4.73;;
2538;SDS011;1280;49.760;9.664;2023-09-07T01:19:16;8.17;;;4.67;;
2538;SDS011;1280;49.760;9.664;2023-09-07T01:21:45;8.07;;;5.03;;
2538;SDS011;1280;49.760;9.664;2023-09-07T01:24:15;7.70;;;4.50;;
2538;SDS011;1280;49.760;9.664;2023-09-07T01:26:44;8.50;;;5.47;;
2538;SDS011;1280;49.760;9.664;2023-09-07T01:29:15;6.87;;;4.00;;
2538;SDS011;1280;49.760;9.664;2023-09-07T01:31:44;9.90;;;4.97;;
2538;SDS011;1280;49.760;9.664;2023-09-07T01:34:12;12.13;;;4.90;;
2538;SDS011;1280;49.760;9.664;2023-09-07T01:36:41;8.43;;;4.43;;
2538;SDS011;1280;49.760;9.664;2023-09-07T01:39:19;7.70;;;4.67;;
2538;SDS011;1280;49.760;9.664;2023-09-07T01:41:48;8.63;;;5.23;;
2538;SDS011;1280;49.760;9.664;2023-09-07T01:44:17;7.93;;;4.60;;
2538;SDS011;1280;49.760;9.664;2023-09-07T01:46:45;8.17;;;5.27;;
2538;SDS011;1280;49.760;9.664;2023-09-07T01:49:13;13.43;;;5.03;;
2538;SDS011;1280;49.760;9.664;2023-09-07T01:51:41;7.17;;;4.60;;
2538;SDS011;1280;49.760;9.664;2023-09-07T01:54:09;8.77;;;4.83;;
2538;SDS011;1280;49.760;9.664;2023-09-07T01:56:39;8.17;;;5.17;;
2538;SDS011;1280;49.760;9.664;2023-09-07T01:59:07;9.27;;;4.70;;
2538;SDS011;1280;49.760;9.664;2023-09-07T02:01:35;7.70;;;5.07;;
2538;SDS011;1280;49.760;9.664;2023-09-07T02:04:05;6.47;;;4.10;;
2538;SDS011;1280;49.760;9.664;2023-09-07T02:06:33;8.93;;;4.50;;
2538;SDS011;1280;49.760;9.664;2023-09-07T02:09:01;8.80;;;4.80;;
2538;SDS011;1280;49.760;9.664;2023-09-07T02:11:30;8.37;;;4.87;;
2538;SDS011;1280;49.760;9.664;2023-09-07T02:13:59;11.40;;;5.17;;
2538;SDS011;1280;49.760;9.664;2023-09-07T02:16:28;8.47;;;5.03;;
2538;SDS011;1280;49.760;9.664;2023-09-07T02:19:00;7.43;;;4.93;;
2538;SDS011;1280;49.760;9.664;2023-09-07T02:21:29;8.17;;;5.13;;
2538;SDS011;1280;49.760;9.664;2023-09-07T02:23:58;10.03;;;5.30;;
2538;SDS011;1280;49.760;9.664;2023-09-07T02:26:26;8.50;;;4.47;;
2538;SDS011;1280;49.760;9.664;2023-09-07T02:28:55;8.60;;;4.60;;
2538;SDS011;1280;49.760;9.664;2023-09-07T02:31:24;7.50;;;4.60;;
2538;SDS011;1280;49.760;9.664;2023-09-07T02:33:52;9.47;;;4.93;;
2538;SDS011;1280;49.760;9.664;2023-09-07T02:36:20;7.87;;;4.53;;
2538;SDS011;1280;49.760;9.664;2023-09-07T02:38:48;7.10;;;4.90;;
2538;SDS011;1280;49.760;9.664;2023-09-07T02:41:17;9.40;;;5.60;;
2538;SDS011;1280;49.760;9.664;2023-09-07T02:43:45;9.40;;;5.00;;
2538;SDS011;1280;49.760;9.664;2023-09-07T02:46:13;8.37;;;5.00;;
2538;SDS011;1280;49.760;9.664;2023-09-07T02:48:44;9.10;;;5.03;;
2538;SDS011;1280;49.760;9.664;2023-09-07T02:51:12;10.90;;;5.30;;
2538;SDS011;1280;49.760;9.664;2023-09-07T02:53:41;13.60;;;5.40;;
2538;SDS011;1280;49.760;9.664;2023-09-07T02:56:09;8.10;;;5.17;;
2538;SDS011;1280;49.760;9.664;2023-09-07T02:58:38;7.30;;;5.10;;
2538;SDS011;1280;49.760;9.664;2023-09-07T03:01:06;8.77;;;5.23;;
2538;SDS011;1280;49.760;9.664;2023-09-07T03:03:36;8.80;;;4.90;;
2538;SDS011;1280;49.760;9.664;2023-09-07T03:06:10;7.47;;;5.20;;
2538;SDS011;1280;49.760;9.664;2023-09-07T03:08:41;11.43;;;5.50;;
2538;SDS011;1280;49.760;9.664;2023-09-07T03:11:11;9.50;;;5.47;;
2538;SDS011;1280;49.760;9.664;2023-09-07T03:13:39;8.87;;;5.30;;
2538;SDS011;1280;49.760;9.664;2023-09-07T03:16:09;9.23;;;5.00;;
2538;SDS011;1280;49.760;9.664;2023-09-07T03:18:37;7.57;;;4.80;;
2538;SDS011;1280;49.760;9.664;2023-09-07T03:21:05;9.73;;;5.93;;
2538;SDS011;1280;49.760;9.664;2023-09-07T03:23:34;8.67;;;5.03;;
2538;SDS011;1280;49.760;9.664;2023-09-07T03:26:03;8.20;;;5.43;;
2538;SDS011;1280;49.760;9.664;2023-09-07T03:28:31;8.60;;;5.73;;
2538;SDS011;1280;49.760;9.664;2023-09-07T03:31:07;8.13;;;5.20;;
2538;SDS011;1280;49.760;9.664;2023-09-07T03:33:36;9.80;;;5.90;;
2538;SDS011;1280;49.760;9.664;2023-09-07T03:36:04;9.07;;;6.17;;
2538;SDS011;1280;49.760;9.664;2023-09-07T03:38:32;7.43;;;5.50;;
2538;SDS011;1280;49.760;9.664;2023-09-07T03:41:02;14.80;;;6.60;;
2538;SDS011;1280;49.760;9.664;2023-09-07T03:43:30;9.70;;;5.50;;
2538;SDS011;1280;49.760;9.664;2023-09-07T03:46:04;8.37;;;5.90;;
2538;SDS011;1280;49.760;9.664;2023-09-07T03:48:32;8.97;;;5.63;;
2538;SDS011;1280;49.760;9.664;2023-09-07T03:51:05;8.80;;;6.00;;
2538;SDS011;1280;49.760;9.664;2023-09-07T03:53:33;10.07;;;5.97;;
2538;SDS011;1280;49.760;9.664;2023-09-07T03:56:03;8.50;;;5.17;;
2538;SDS011;1280;49.760;9.664;2023-09-07T03:58:31;10.20;;;5.90;;
2538;SDS011;1280;49.760;9.664;2023-09-07T04:01:00;10.13;;;5.50;;
2538;SDS011;1280;49.760;9.664;2023-09-07T04:03:29;11.30;;;5.73;;
2538;SDS011;1280;49.760;9.664;2023-09-07T04:05:58;14.20;;;6.23;;
2538;SDS011;1280;49.760;9.664;2023-09-07T04:08:27;9.33;;;5.50;;
2538;SDS011;1280;49.760;9.664;2023-09-07T04:10:56;8.90;;;6.70;;
2538;SDS011;1280;49.760;9.664;2023-09-07T04:13:25;8.10;;;5.10;;
2538;SDS011;1280;49.760;9.664;2023-09-07T04:15:53;10.53;;;6.10;;
2538;SDS011;1280;49.760;9.664;2023-09-07T04:18:21;8.57;;;5.40;;
2538;SDS011;1280;49.760;9.664;2023-09-07T04:20:50;9.90;;;6.00;;
2538;SDS011;1280;49.760;9.664;2023-09-07T04:23:18;10.87;;;6.27;;
2538;SDS011;1280;49.760;9.664;2023-09-07T04:25:46;11.17;;;5.90;;
2538;SDS011;1280;49.760;9.664;2023-09-07T04:28:14;7.27;;;5.03;;
2538;SDS011;1280;49.760;9.664;2023-09-07T04:30:43;9.70;;;6.37;;
2538;SDS011;1280;49.760;9.664;2023-09-07T04:33:11;9.27;;;5.63;;
2538;SDS011;1280;49.760;9.664;2023-09-07T04:35:39;8.67;;;5.87;;
2538;SDS011;1280;49.760;9.664;2023-09-07T04:38:07;10.10;;;7.03;;
2538;SDS011;1280;49.760;9.664;2023-09-07T04:40:36;11.80;;;6.13;;
2538;SDS011;1280;49.760;9.664;2023-09-07T04:43:04;10.50;;;5.60;;
2538;SDS011;1280;49.760;9.664;2023-09-07T04:45:32;7.70;;;5.60;;
2538;SDS011;1280;49.760;9.664;2023-09-07T04:48:02;12.03;;;5.83;;
2538;SDS011;1280;49.760;9.664;2023-09-07T04:50:31;9.10;;;5.70;;
2538;SDS011;1280;49.760;9.664;2023-09-07T04:52:59;14.27;;;6.33;;
2538;SDS011;1280;49.760;9.664;2023-09-07T04:55:27;8.90;;;5.80;;
2538;SDS011;1280;49.760;9.664;2023-09-07T04:57:55;12.53;;;6.30;;
2538;SDS011;1280;49.760;9.664;2023-09-07T05:00:23;15.23;;;6.30;;
2538;SDS011;1280;49.760;9.664;2023-09-07T05:02:51;8.90;;;6.13;;
2538;SDS011;1280;49.760;9.664;2023-09-07T05:05:20;10.20;;;5.57;;
2538;SDS011;1280;49.760;9.664;2023-09-07T05:07:49;10.53;;;5.50;;
2538;SDS011;1280;49.760;9.664;2023-09-07T05:10:17;12.43;;;6.63;;
2538;SDS011;1280;49.760;9.664;2023-09-07T05:12:52;10.97;;;6.43;;
2538;SDS011;1280;49.760;9.664;2023-09-07T05:15:20;12.73;;;6.20;;
2538;SDS011;1280;49.760;9.664;2023-09-07T05:17:48;8.37;;;5.70;;
2538;SDS011;1280;49.760;9.664;2023-09-07T05:20:16;9.60;;;6.47;;
2538;SDS011;1280;49.760;9.664;2023-09-07T05:22:45;10.23;;;5.70;;
2538;SDS011;1280;49.760;9.664;2023-09-07T05:25:13;10.30;;;6.80;;
2538;SDS011;1280;49.760;9.664;2023-09-07T05:27:41;10.33;;;6.63;;
2538;SDS011;1280;49.760;9.664;2023-09-07T05:30:11;10.47;;;6.10;;
2538;SDS011;1280;49.760;9.664;2023-09-07T05:32:39;10.10;;;6.53;;
2538;SDS011;1280;49.760;9.664;2023-09-07T05:35:08;14.03;;;7.03;;
2538;SDS011;1280;49.760;9.664;2023-09-07T05:37:38;10.00;;;7.07;;
2538;SDS011;1280;49.760;9.664;2023-09-07T05:40:08;9.10;;;6.03;;
2538;SDS011;1280;49.760;9.664;2023-09-07T05:42:37;12.60;;;7.00;;
2538;SDS011;1280;49.760;9.664;2023-09-07T05:45:06;10.67;;;6.87;;
2538;SDS011;1280;49.760;9.664;2023-09-07T05:47:35;10.00;;;6.50;;
2538;SDS011;1280;49.760;9.664;2023-09-07T05:50:04;9.10;;;6.13;;
2538;SDS011;1280;49.760;9.664;2023-09-07T05:52:32;11.00;;;6.70;;
2538;SDS011;1280;49.760;9.664;2023-09-07T05:55:01;12.00;;;6.30;;
2538;SDS011;1280;49.760;9.664;2023-09-07T05:57:30;11.77;;;7.80;;
2538;SDS011;1280;49.760;9.664;2023-09-07T05:59:58;9.63;;;7.37;;
2538;SDS011;1280;49.760;9.664;2023-09-07T06:02:27;15.03;;;8.93;;
2538;SDS011;1280;49.760;9.664;2023-09-07T06:04:55;12.30;;;8.60;;
2538;SDS011;1280;49.760;9.664;2023-09-07T06:07:23;17.40;;;8.43;;
2538;SDS011;1280;49.760;9.664;2023-09-07T06:09:51;12.97;;;8.00;;
2538;SDS011;1280;49.760;9.664;2023-09-07T06:12:19;11.73;;;8.30;;
2538;SDS011;1280;49.760;9.664;2023-09-07T06:14:48;22.93;;;8.80;;
2538;SDS011;1280;49.760;9.664;2023-09-07T06:17:16;10.70;;;7.77;;
2538;SDS011;1280;49.760;9.664;2023-09-07T06:19:45;12.90;;;9.10;;
2538;SDS011;1280;49.760;9.664;2023-09-07T06:22:13;12.43;;;8.30;;
2538;SDS011;1280;49.760;9.664;2023-09-07T06:24:42;11.17;;;8.40;;
2538;SDS011;1280;49.760;9.664;2023-09-07T06:27:10;11.60;;;8.70;;
2538;SDS011;1280;49.760;9.664;2023-09-07T06:29:38;12.70;;;9.53;;
2538;SDS011;1280;49.760;9.664;2023-09-07T06:32:07;15.93;;;10.10;;
2538;SDS011;1280;49.760;9.664;2023-09-07T06:34:35;12.17;;;8.97;;
2538;SDS011;1280;49.760;9.664;2023-09-07T06:37:04;21.73;;;10.00;;
2538;SDS011;1280;49.760;9.664;2023-09-07T06:39:33;12.70;;;9.70;;
2538;SDS011;1280;49.760;9.664;2023-09-07T06:42:01;15.53;;;8.97;;
2538;SDS011;1280;49.760;9.664;2023-09-07T06:44:37;12.17;;;8.60;;
2538;SDS011;1280;49.760;9.664;2023-09-07T06:47:05;11.20;;;7.80;;
2538;SDS011;1280;49.760;9.664;2023-09-07T06:49:34;12.60;;;9.70;;
2538;SDS011;1280;49.760;9.664;2023-09-07T06:52:05;14.40;;;9.10;;
2538;SDS011;1280;49.760;9.664;2023-09-07T06:54:35;12.07;;;9.17;;
2538;SDS011;1280;49.760;9.664;2023-09-07T06:57:05;14.40;;;8.90;;
2538;SDS011;1280;49.760;9.664;2023-09-07T06:59:34;12.10;;;8.00;;
2538;SDS011;1280;49.760;9.664;2023-09-07T07:02:02;14.13;;;9.00;;
2538;SDS011;1280;49.760;9.664;2023-09-07T07:04:32;11.97;;;8.00;;
2538;SDS011;1280;49.760;9.664;2023-09-07T07:07:03;13.20;;;8.10;;
2538;SDS011;1280;49.760;9.664;2023-09-07T07:09:32;10.70;;;7.90;;
2538;SDS011;1280;49.760;9.664;2023-09-07T07:12:01;12.47;;;7.57;;
2538;SDS011;1280;49.760;9.664;2023-09-07T07:14:29;13.93;;;7.80;;
2538;SDS011;1280;49.760;9.664;2023-09-07T07:16:58;12.00;;;7.43;;
2538;SDS011;1280;49.760;9.664;2023-09-07T07:19:28;13.67;;;9.30;;
2538;SDS011;1280;49.760;9.664;2023-09-07T07:21:57;14.77;;;7.93;;
2538;SDS011;1280;49.760;9.664;2023-09-07T07:24:26;12.10;;;7.57;;
2538;SDS011;1280;49.760;9.664;2023-09-07T07:26:55;12.17;;;8.30;;
2538;SDS011;1280;49.760;9.664;2023-09-07T07:29:23;11.10;;;7.00;;
2538;SDS011;1280;49.760;9.664;2023-09-07T07:31:52;10.80;;;7.17;;
2538;SDS011;1280;49.760;9.664;2023-09-07T07:34:20;11.90;;;7.93;;
2538;SDS011;1280;49.760;9.664;2023-09-07T07:36:48;12.90;;;7.70;;
2538;SDS011;1280;49.760;9.664;2023-09-07T07:39:22;9.97;;;7.33;;
2538;SDS011;1280;49.760;9.664;2023-09-07T07:41:52;10.70;;;7.37;;
2538;SDS011;1280;49.760;9.664;2023-09-07T07:44:20;10.47;;;7.23;;
2538;SDS011;1280;49.760;9.664;2023-09-07T07:46:48;10.90;;;7.37;;
2538;SDS011;1280;49.760;9.664;2023-09-07T07:49:17;9.77;;;6.70;;
2538;SDS011;1280;49.760;9.664;2023-09-07T07:51:46;10.03;;;7.30;;
2538;SDS011;1280;49.760;9.664;2023-09-07T07:54:14;11.80;;;6.57;;
2538;SDS011;1280;49.760;9.664;2023-09-07T07:56:42;14.30;;;7.10;;
2538;SDS011;1280;49.760;9.664;2023-09-07T07:59:12;11.20;;;6.87;;
2538;SDS011;1280;49.760;9.664;2023-09-07T08:01:40;11.43;;;7.10;;
2538;SDS011;1280;49.760;9.664;2023-09-07T08:04:08;9.80;;;5.90;;
2538;SDS011;1280;49.760;9.664;2023-09-07T08:06:38;8.33;;;6.13;;
2538;SDS011;1280;49.760;9.664;2023-09-07T08:09:06;13.10;;;6.77;;
2538;SDS011;1280;49.760;9.664;2023-09-07T08:11:34;11.20;;;6.40;;
2538;SDS011;1280;49.760;9.664;2023-09-07T08:14:02;10.80;;;6.10;;
2538;SDS011;1280;49.760;9.664;2023-09-07T08:16:32;13.60;;;7.30;;
2538;SDS011;1280;49.760;9.664;2023-09-07T08:19:00;14.20;;;6.70;;
2538;SDS011;1280;49.760;9.664;2023-09-07T08:21:30;14.90;;;6.60;;
2538;SDS011;1280;49.760;9.664;2023-09-07T08:23:59;10.10;;;6.30;;
2538;SDS011;1280;49.760;9.664;2023-09-07T08:26:29;8.90;;;5.67;;
2538;SDS011;1280;49.760;9.664;2023-09-07T08:28:57;14.27;;;6.80;;
2538;SDS011;1280;49.760;9.664;2023-09-07T08:31:25;9.40;;;6.13;;
2538;SDS011;1280;49.760;9.664;2023-09-07T08:33:55;9.50;;;6.47;;
2538;SDS011;1280;49.760;9.664;2023-09-07T08:36:23;14.10;;;5.80;;
2538;SDS011;1280;49.760;9.664;2023-09-07T08:38:54;10.93;;;6.87;;
2538;SDS011;1280;49.760;9.664;2023-09-07T08:41:22;11.90;;;6.57;;
2538;SDS011;1280;49.760;9.664;2023-09-07T08:43:51;14.23;;;5.87;;
2538;SDS011;1280;49.760;9.664;2023-09-07T08:46:22;12.87;;;6.33;;
2538;SDS011;1280;49.760;9.664;2023-09-07T08:48:50;11.83;;;6.30;;
2538;SDS011;1280;49.760;9.664;2023-09-07T08:51:20;12.83;;;6.30;;
2538;SDS011;1280;49.760;9.664;2023-09-07T08:53:49;10.10;;;5.30;;
2538;SDS011;1280;49.760;9.664;2023-09-07T08:56:17;13.27;;;6.77;;
2538;SDS011;1280;49.760;9.664;2023-09-07T08:58:47;9.20;;;5.70;;
2538;SDS011;1280;49.760;9.664;2023-09-07T09:01:16;13.13;;;6.13;;
2538;SDS011;1280;49.760;9.664;2023-09-07T09:03:46;9.40;;;5.90;;
2538;SDS011;1280;49.760;9.664;2023-09-07T09:06:16;8.90;;;5.10;;
2538;SDS011;1280;49.760;9.664;2023-09-07T09:08:47;10.93;;;5.83;;
2538;SDS011;1280;49.760;9.664;2023-09-07T09:11:17;8.97;;;5.33;;
2538;SDS011;1280;49.760;9.664;2023-09-07T09:13:46;10.00;;;5.73;;
2538;SDS011;1280;49.760;9.664;2023-09-07T09:16:15;9.07;;;5.93;;
2538;SDS011;1280;49.760;9.664;2023-09-07T09:18:49;9.63;;;5.30;;
2538;SDS011;1280;49.760;9.664;2023-09-07T09:21:18;12.13;;;6.37;;
2538;SDS011;1280;49.760;9.664;2023-09-07T09:23:49;10.63;;;6.20;;
2538;SDS011;1280;49.760;9.664;2023-09-07T09:26:18;10.57;;;5.73;;
2538;SDS011;1280;49.760;9.664;2023-09-07T09:28:46;10.57;;;5.23;;
2538;SDS011;1280;49.760;9.664;2023-09-07T09:31:17;10.40;;;6.10;;
2538;SDS011;1280;49.760;9.664;2023-09-07T09:33:47;15.60;;;6.00;;
2538;SDS011;1280;49.760;9.664;2023-09-07T09:36:17;11.83;;;5.90;;
2538;SDS011;1280;49.760;9.664;2023-09-07T09:38:47;11.23;;;5.60;;
2538;SDS011;1280;49.760;9.664;2023-09-07T09:41:19;8.93;;;5.10;;
2538;SDS011;1280;49.760;9.664;2023-09-07T09:43:48;10.30;;;5.50;;
2538;SDS011;1280;49.760;9.664;2023-09-07T09:46:17;10.53;;;5.67;;
2538;SDS011;1280;49.760;9.664;2023-09-07T09:48:46;7.50;;;5.23;;
2538;SDS011;1280;49.760;9.664;2023-09-07T09:51:16;11.77;;;4.93;;
2538;SDS011;1280;49.760;9.664;2023-09-07T09:53:45;8.63;;;5.10;;
2538;SDS011;1280;49.760;9.664;2023-09-07T09:56:16;8.13;;;5.40;;
2538;SDS011;1280;49.760;9.664;2023-09-07T09:58:46;8.10;;;4.90;;
2538;SDS011;1280;49.760;9.664;2023-09-07T10:01:14;7.90;;;5.00;;
2538;SDS011;1280;49.760;9.664;2023-09-07T10:03:44;10.73;;;5.80;;
2538;SDS011;1280;49.760;9.664;2023-09-07T10:06:18;8.80;;;5.70;;
2538;SDS011;1280;49.760;9.664;2023-09-07T10:08:54;9.50;;;5.27;;
2538;SDS011;1280;49.760;9.664;2023-09-07T10:11:26;10.03;;;5.97;;
2538;SDS011;1280;49.760;9.664;2023-09-07T10:13:57;9.60;;;4.70;;
2538;SDS011;1280;49.760;9.664;2023-09-07T10:16:25;9.03;;;5.47;;
2538;SDS011;1280;49.760;9.664;2023-09-07T10:18:54;7.43;;;4.70;;
2538;SDS011;1280;49.760;9.664;2023-09-07T10:21:24;9.77;;;5.10;;
2538;SDS011;1280;49.760;9.664;2023-09-07T10:23:54;17.03;;;5.63;;
2538;SDS011;1280;49.760;9.664;2023-09-07T10:26:22;9.50;;;5.23;;
2538;SDS011;1280;49.760;9.664;2023-09-07T10:28:58;9.50;;;5.47;;
2538;SDS011;1280;49.760;9.664;2023-09-07T10:31:27;12.10;;;5.77;;
2538;SDS011;1280;49.760;9.664;2023-09-07T10:34:16;13.20;;;5.23;;
2538;SDS011;1280;49.760;9.664;2023-09-07T10:36:45;8.20;;;5.53;;
2538;SDS011;1280;49.760;9.664;2023-09-07T10:39:14;10.90;;;4.60;;
2538;SDS011;1280;49.760;9.664;2023-09-07T10:41:45;9.10;;;5.20;;
2538;SDS011;1280;49.760;9.664;2023-09-07T10:44:14;7.77;;;4.73;;
2538;SDS011;1280;49.760;9.664;2023-09-07T10:46:42;8.67;;;4.53;;
2538;SDS011;1280;49.760;9.664;2023-09-07T10:49:11;12.80;;;5.10;;
2538;SDS011;1280;49.760;9.664;2023-09-07T10:51:40;10.67;;;6.17;;
2538;SDS011;1280;49.760;9.664;2023-09-07T10:54:21;8.00;;;5.13;;
2538;SDS011;1280;49.760;9.664;2023-09-07T10:56:51;11.57;;;5.50;;
2538;SDS011;1280;49.760;9.664;2023-09-07T10:59:24;8.73;;;5.23;;
2538;SDS011;1280;49.760;9.664;2023-09-07T11:01:55;9.37;;;5.80;;
2538;SDS011;1280;49.760;9.664;2023-09-07T11:04:31;12.20;;;5.37;;
2538;SDS011;1280;49.760;9.664;2023-09-07T11:07:00;9.80;;;5.10;;
2538;SDS011;1280;49.760;9.664;2023-09-07T11:09:31;9.10;;;4.77;;
2538;SDS011;1280;49.760;9.664;2023-09-07T11:12:03;9.70;;;4.70;;
2538;SDS011;1280;49.760;9.664;2023-09-07T11:14:32;8.73;;;5.20;;
2538;SDS011;1280;49.760;9.664;2023-09-07T11:17:00;8.80;;;5.03;;
2538;SDS011;1280;49.760;9.664;2023-09-07T11:19:31;13.03;;;5.20;;
2538;SDS011;1280;49.760;9.664;2023-09-07T11:21:59;13.43;;;5.53;;
2538;SDS011;1280;49.760;9.664;2023-09-07T11:24:32;10.90;;;4.83;;
2538;SDS011;1280;49.760;9.664;2023-09-07T11:27:02;9.57;;;4.83;;
2538;SDS011;1280;49.760;9.664;2023-09-07T11:29:31;10.07;;;5.60;;
2538;SDS011;1280;49.760;9.664;2023-09-07T11:32:05;8.53;;;4.73;;
2538;SDS011;1280;49.760;9.664;2023-09-07T11:34:34;6.87;;;4.40;;
2538;SDS011;1280;49.760;9.664;2023-09-07T11:37:02;7.77;;;4.53;;
2538;SDS011;1280;49.760;9.664;2023-09-07T11:39:32;8.33;;;4.90;;
2538;SDS011;1280;49.760;9.664;2023-09-07T11:42:00;9.67;;;4.93;;
2538;SDS011;1280;49.760;9.664;2023-09-07T11:44:28;8.63;;;4.83;;
2538;SDS011;1280;49.760;9.664;2023-09-07T11:46:56;10.67;;;5.33;;
2538;SDS011;1280;49.760;9.664;2023-09-07T11:49:24;9.10;;;5.53;;
2538;SDS011;1280;49.760;9.664;2023-09-07T11:51:52;9.83;;;5.83;;
2538;SDS011;1280;49.760;9.664;2023-09-07T11:54:20;9.73;;;4.53;;
2538;SDS011;1280;49.760;9.664;2023-09-07T11:56:50;10.53;;;4.70;;
2538;SDS011;1280;49.760;9.664;2023-09-07T11:59:18;8.33;;;5.20;;
2538;SDS011;1280;49.760;9.664;2023-09-07T12:01:46;12.40;;;5.13;;
2538;SDS011;1280;49.760;9.664;2023-09-07T12:04:15;10.20;;;5.40;;
2538;SDS011;1280;49.760;9.664;2023-09-07T12:06:43;15.43;;;5.07;;
2538;SDS011;1280;49.760;9.664;2023-09-07T12:09:11;10.90;;;5.20;;
2538;SDS011;1280;49.760;9.664;2023-09-07T12:11:41;11.37;;;4.93;;
2538;SDS011;1280;49.760;9.664;2023-09-07T12:14:11;11.63;;;4.67;;
2538;SDS011;1280;49.760;9.664;2023-09-07T12:16:39;8.10;;;4.97;;
2538;SDS011;1280;49.760;9.664;2023-09-07T12:19:07;8.60;;;4.70;;
2538;SDS011;1280;49.760;9.664;2023-09-07T12:21:35;11.00;;;5.00;;
2538;SDS011;1280;49.760;9.664;2023-09-07T12:24:03;9.70;;;4.10;;
2538;SDS011;1280;49.760;9.664;2023-09-07T12:26:32;7.27;;;4.47;;
2538;SDS011;1280;49.760;9.664;2023-09-07T12:29:00;10.00;;;5.27;;
2538;SDS011;1280;49.760;9.664;2023-09-07T12:31:29;8.13;;;5.10;;
2538;SDS011;1280;49.760;9.664;2023-09-07T12:33:59;7.70;;;4.63;;
2538;SDS011;1280;49.760;9.664;2023-09-07T12:36:29;11.77;;;4.73;;
2538;SDS011;1280;49.760;9.664;2023-09-07T12:38:58;7.30;;;4.50;;
2538;SDS011;1280;49.760;9.664;2023-09-07T12:41:27;10.00;;;4.50;;
2538;SDS011;1280;49.760;9.664;2023-09-07T12:43:59;12.13;;;4.97;;
2538;SDS011;1280;49.760;9.664;2023-09-07T12:46:27;7.73;;;4.30;;
2538;SDS011;1280;49.760;9.664;2023-09-07T12:48:56;8.10;;;4.43;;
2538;SDS011;1280;49.760;9.664;2023-09-07T12:51:25;7.43;;;4.47;;
2538;SDS011;1280;49.760;9.664;2023-09-07T12:53:54;8.80;;;4.50;;
2538;SDS011;1280;49.760;9.664;2023-09-07T12:56:22;9.97;;;4.40;;
2538;SDS011;1280;49.760;9.664;2023-09-07T12:58:50;11.90;;;5.43;;
2538;SDS011;1280;49.760;9.664;2023-09-07T13:01:19;11.33;;;4.70;;
2538;SDS011;1280;49.760;9.664;2023-09-07T13:03:47;11.30;;;4.63;;
2538;SDS011;1280;49.760;9.664;2023-09-07T13:06:16;8.53;;;4.67;;
2538;SDS011;1280;49.760;9.664;2023-09-07T13:08:44;8.53;;;4.60;;
2538;SDS011;1280;49.760;9.664;2023-09-07T13:11:12;8.20;;;4.73;;
2538;SDS011;1280;49.760;9.664;2023-09-07T13:13:40;8.20;;;4.43;;
2538;SDS011;1280;49.760;9.664;2023-09-07T13:16:08;6.93;;;4.07;;
2538;SDS011;1280;49.760;9.664;2023-09-07T13:18:36;9.90;;;4.30;;
2538;SDS011;1280;49.760;9.664;2023-09-07T13:21:04;7.10;;;4.30;;
2538;SDS011;1280;49.760;9.664;2023-09-07T13:23:34;12.40;;;4.17;;
2538;SDS011;1280;49.760;9.664;2023-09-07T13:26:02;8.50;;;4.07;;
2538;SDS011;1280;49.760;9.664;2023-09-07T13:28:30;8.10;;;3.73;;
2538;SDS011;1280;49.760;9.664;2023-09-07T13:30:58;7.63;;;4.53;;
2538;SDS011;1280;49.760;9.664;2023-09-07T13:33:26;10.70;;;4.30;;
2538;SDS011;1280;49.760;9.664;2023-09-07T13:35:56;7.43;;;4.70;;
2538;SDS011;1280;49.760;9.664;2023-09-07T13:38:24;9.07;;;4.77;;
2538;SDS011;1280;49.760;9.664;2023-09-07T13:40:53;8.20;;;4.67;;
2538;SDS011;1280;49.760;9.664;2023-09-07T13:43:21;10.53;;;5.10;;
2538;SDS011;1280;49.760;9.664;2023-09-07T13:45:49;14.33;;;5.37;;
2538;SDS011;1280;49.760;9.664;2023-09-07T13:48:17;8.90;;;4.43;;
2538;SDS011;1280;49.760;9.664;2023-09-07T13:50:45;8.70;;;4.20;;
2538;SDS011;1280;49.760;9.664;2023-09-07T13:53:13;18.60;;;4.80;;
2538;SDS011;1280;49.760;9.664;2023-09-07T13:55:41;10.20;;;4.80;;
2538;SDS011;1280;49.760;9.664;2023-09-07T13:58:14;7.63;;;4.60;;
2538;SDS011;1280;49.760;9.664;2023-09-07T14:00:42;8.90;;;4.70;;
2538;SDS011;1280;49.760;9.664;2023-09-07T14:03:10;9.30;;;4.40;;
2538;SDS011;1280;49.760;9.664;2023-09-07T14:05:38;9.70;;;4.83;;
2538;SDS011;1280;49.760;9.664;2023-09-07T14:08:06;7.10;;;4.00;;
2538;SDS011;1280;49.760;9.664;2023-09-07T14:10:34;8.60;;;4.70;;
2538;SDS011;1280;49.760;9.664;2023-09-07T14:13:02;13.40;;;4.67;;
2538;SDS011;1280;49.760;9.664;2023-09-07T14:15:32;8.93;;;5.03;;
2538;SDS011;1280;49.760;9.664;2023-09-07T14:18:00;9.63;;;5.00;;
2538;SDS011;1280;49.760;9.664;2023-09-07T14:20:29;8.70;;;4.50;;
2538;SDS011;1280;49.760;9.664;2023-09-07T14:22:57;9.20;;;4.30;;
2538;SDS011;1280;49.760;9.664;2023-09-07T14:25:25;6.73;;;4.33;;
2538;SDS011;1280;49.760;9.664;2023-09-07T14:27:54;9.23;;;5.27;;
2538;SDS011;1280;49.760;9.664;2023-09-07T14:30:21;10.27;;;4.50;;
2538;SDS011;1280;49.760;9.664;2023-09-07T14:32:51;6.83;;;3.83;;
2538;SDS011;1280;49.760;9.664;2023-09-07T14:35:19;10.80;;;4.40;;
2538;SDS011;1280;49.760;9.664;2023-09-07T14:37:47;6.80;;;4.27;;
2538;SDS011;1280;49.760;9.664;2023-09-07T14:40:15;10.00;;;4.70;;
2538;SDS011;1280;49.760;9.664;2023-09-07T14:42:45;9.83;;;4.43;;
2538;SDS011;1280;49.760;9.664;2023-09-07T14:45:13;9.00;;;4.73;;
2538;SDS011;1280;49.760;9.664;2023-09-07T14:47:41;8.90;;;4.37;;
2538;SDS011;1280;49.760;9.664;2023-09-07T14:50:11;7.40;;;4.40;;
2538;SDS011;1280;49.760;9.664;2023-09-07T14:52:39;8.17;;;5.13;;
2538;SDS011;1280;49.760;9.664;2023-09-07T14:55:10;7.77;;;4.60;;
2538;SDS011;1280;49.760;9.664;2023-09-07T14:57:38;9.70;;;4.03;;
2538;SDS011;1280;49.760;9.664;2023-09-07T15:00:07;7.13;;;4.27;;
2538;SDS011;1280;49.760;9.664;2023-09-07T15:02:36;9.50;;;4.57;;
2538;SDS011;1280;49.760;9.664;2023-09-07T15:05:05;10.87;;;5.27;;
2538;SDS011;1280;49.760;9.664;2023-09-07T15:07:34;6.80;;;4.23;;
2538;SDS011;1280;49.760;9.664;2023-09-07T15:10:02;10.73;;;4.57;;
2538;SDS011;1280;49.760;9.664;2023-09-07T15:12:31;8.27;;;4.83;;
2538;SDS011;1280;49.760;9.664;2023-09-07T15:14:59;7.37;;;4.00;;
2538;SDS011;1280;49.760;9.664;2023-09-07T15:17:27;8.67;;;4.20;;
2538;SDS011;1280;49.760;9.664;2023-09-07T15:19:55;7.80;;;4.50;;
2538;SDS011;1280;49.760;9.664;2023-09-07T15:22:23;6.70;;;4.20;;